sensor_id;sensor_type;location;lat;lon;timestamp;P1;P2;P0
49686;PMS5003;36064;38.180;-122.272;2023-12-22T00:00:01;0.8;0.8;
49686;PMS5003;36064;38.180;-122.272;2023-12-22T00:05:00;0.8;0.4;
49686;PMS5003;36064;38.180;-122.272;2023-12-22T00:10:00;1.2;1.2;
49686;PMS5003;36064;38.180;-122.272;2023-12-22T00:15:00;1.0;1.0;
49686;PMS5003;36064;38.180;-122.272;2023-12-22T00:20:00;1.0;0.6;
49686;PMS5003;36064;38.180;-122.272;2023-12-22T00:25:00;1.8;1.6;
49686;PMS5003;36064;38.180;-122.272;2023-12-22T00:30:00;2.2;1.6;
49686;PMS5003;36064;38.180;-122.272;2023-12-22T00:35:00;0.6;0.6;
49686;PMS5003;36064;38.180;-122.272;2023-12-22T00:40:00;1.4;1.4;
49686;PMS5003;36064;38.180;-122.272;2023-12-22T00:45:00;3.2;2.4;
49686;PMS5003;36064;38.180;-122.272;2023-12-22T00:50:00;3.4;3.0;
49686;PMS5003;36064;38.180;-122.272;2023-12-22T00:55:00;2.8;2.8;
49686;PMS5003;36064;38.180;-122.272;2023-12-22T01:00:00;9.0;8.6;
49686;PMS5003;36064;38.180;-122.272;2023-12-22T01:05:00;12.0;11.6;
49686;PMS5003;36064;38.180;-122.272;2023-12-22T01:10:00;11.0;10.0;
49686;PMS5003;36064;38.180;-122.272;2023-12-22T01:15:00;7.2;4.4;
49686;PMS5003;36064;38.180;-122.272;2023-12-22T01:20:00;4.6;4.6;
49686;PMS5003;36064;38.180;-122.272;2023-12-22T01:25:00;4.8;4.6;
49686;PMS5003;36064;38.180;-122.272;2023-12-22T01:30:00;5.0;4.2;
49686;PMS5003;36064;38.180;-122.272;2023-12-22T01:35:00;5.0;4.4;
49686;PMS5003;36064;38.180;-122.272;2023-12-22T01:40:00;7.6;6.4;
49686;PMS5003;36064;38.180;-122.272;2023-12-22T01:45:00;3.6;3.6;
49686;PMS5003;36064;38.180;-122.272;2023-12-22T01:50:00;3.6;3.6;
49686;PMS5003;36064;38.180;-122.272;2023-12-22T01:55:00;4.6;4.4;
49686;PMS5003;36064;38.180;-122.272;2023-12-22T02:00:00;4.4;4.0;
49686;PMS5003;36064;38.180;-122.272;2023-12-22T02:05:00;3.2;3.2;
49686;PMS5003;36064;38.180;-122.272;2023-12-22T02:10:01;2.2;2.2;
49686;PMS5003;36064;38.180;-122.272;2023-12-22T02:15:00;4.6;2.6;
49686;PMS5003;36064;38.180;-122.272;2023-12-22T02:20:00;4.6;4.0;
49686;PMS5003;36064;38.180;-122.272;2023-12-22T02:25:00;4.6;5.4;
49686;PMS5003;36064;38.180;-122.272;2023-12-22T02:30:03;7.0;6.6;
49686;PMS5003;36064;38.180;-122.272;2023-12-22T02:35:01;8.6;7.8;
49686;PMS5003;36064;38.180;-122.272;2023-12-22T02:40:00;6.6;6.6;
49686;PMS5003;36064;38.180;-122.272;2023-12-22T02:45:00;7.4;5.4;
49686;PMS5003;36064;38.180;-122.272;2023-12-22T02:50:00;8.2;6.2;
49686;PMS5003;36064;38.180;-122.272;2023-12-22T02:55:00;5.4;5.4;
49686;PMS5003;36064;38.180;-122.272;2023-12-22T03:00:00;5.0;4.2;
49686;PMS5003;36064;38.180;-122.272;2023-12-22T03:05:00;5.0;4.8;
49686;PMS5003;36064;38.180;-122.272;2023-12-22T03:10:00;4.8;4.4;
49686;PMS5003;36064;38.180;-122.272;2023-12-22T03:15:00;4.8;4.4;
49686;PMS5003;36064;38.180;-122.272;2023-12-22T03:20:00;4.8;4.4;
49686;PMS5003;36064;38.180;-122.272;2023-12-22T03:25:00;4.8;4.4;
49686;PMS5003;36064;38.180;-122.272;2023-12-22T03:30:00;4.0;5.2;
49686;PMS5003;36064;38.180;-122.272;2023-12-22T03:35:00;6.4;6.0;
49686;PMS5003;36064;38.180;-122.272;2023-12-22T03:40:00;6.2;5.8;
49686;PMS5003;36064;38.180;-122.272;2023-12-22T03:45:00;8.6;7.4;
49686;PMS5003;36064;38.180;-122.272;2023-12-22T03:50:00;14.8;14.4;
49686;PMS5003;36064;38.180;-122.272;2023-12-22T03:55:00;26.4;25.6;
49686;PMS5003;36064;38.180;-122.272;2023-12-22T04:00:00;25.0;27.0;
49686;PMS5003;36064;38.180;-122.272;2023-12-22T04:05:00;18.6;18.2;
49686;PMS5003;36064;38.180;-122.272;2023-12-22T04:10:00;14.2;10.0;
49686;PMS5003;36064;38.180;-122.272;2023-12-22T04:15:00;8.0;7.0;
49686;PMS5003;36064;38.180;-122.272;2023-12-22T04:20:00;9.0;8.2;
49686;PMS5003;36064;38.180;-122.272;2023-12-22T04:25:00;9.2;8.0;
49686;PMS5003;36064;38.180;-122.272;2023-12-22T04:30:00;9.6;7.8;
49686;PMS5003;36064;38.180;-122.272;2023-12-22T04:35:00;10.6;10.2;
49686;PMS5003;36064;38.180;-122.272;2023-12-22T04:40:00;10.0;9.6;
49686;PMS5003;36064;38.180;-122.272;2023-12-22T04:45:00;9.6;9.2;
49686;PMS5003;36064;38.180;-122.272;2023-12-22T04:50:00;12.2;10.2;
49686;PMS5003;36064;38.180;-122.272;2023-12-22T04:55:00;11.8;10.2;
49686;PMS5003;36064;38.180;-122.272;2023-12-22T05:00:00;10.4;9.6;
49686;PMS5003;36064;38.180;-122.272;2023-12-22T05:05:00;11.6;10.0;
49686;PMS5003;36064;38.180;-122.272;2023-12-22T05:10:00;10.6;9.6;
49686;PMS5003;36064;38.180;-122.272;2023-12-22T05:15:00;9.6;9.0;
49686;PMS5003;36064;38.180;-122.272;2023-12-22T05:20:00;9.8;9.2;
49686;PMS5003;36064;38.180;-122.272;2023-12-22T05:25:00;10.4;9.2;
49686;PMS5003;36064;38.180;-122.272;2023-12-22T05:30:00;8.2;7.4;
49686;PMS5003;36064;38.180;-122.272;2023-12-22T05:35:00;8.6;7.8;
49686;PMS5003;36064;38.180;-122.272;2023-12-22T05:40:00;7.0;6.4;
49686;PMS5003;36064;38.180;-122.272;2023-12-22T05:45:00;8.4;8.4;
49686;PMS5003;36064;38.180;-122.272;2023-12-22T05:50:00;8.4;8.0;
49686;PMS5003;36064;38.180;-122.272;2023-12-22T05:55:00;11.8;10.6;
49686;PMS5003;36064;38.180;-122.272;2023-12-22T06:00:00;11.0;11.0;
49686;PMS5003;36064;38.180;-122.272;2023-12-22T06:05:00;14.2;13.0;
49686;PMS5003;36064;38.180;-122.272;2023-12-22T06:10:00;14.2;13.4;
49686;PMS5003;36064;38.180;-122.272;2023-12-22T06:15:00;14.0;13.8;
49686;PMS5003;36064;38.180;-122.272;2023-12-22T06:20:00;14.6;14.2;
49686;PMS5003;36064;38.180;-122.272;2023-12-22T06:25:00;15.6;14.8;
49686;PMS5003;36064;38.180;-122.272;2023-12-22T06:30:00;14.8;13.8;
49686;PMS5003;36064;38.180;-122.272;2023-12-22T06:35:00;14.6;16.8;
49686;PMS5003;36064;38.180;-122.272;2023-12-22T06:40:00;16.0;14.2;
49686;PMS5003;36064;38.180;-122.272;2023-12-22T06:45:00;17.0;16.0;
49686;PMS5003;36064;38.180;-122.272;2023-12-22T06:50:00;17.0;15.0;
49686;PMS5003;36064;38.180;-122.272;2023-12-22T06:55:00;17.4;16.2;
49686;PMS5003;36064;38.180;-122.272;2023-12-22T07:00:00;17.4;16.0;
49686;PMS5003;36064;38.180;-122.272;2023-12-22T07:10:00;21.2;19.4;
49686;PMS5003;36064;38.180;-122.272;2023-12-22T07:15:00;19.0;18.8;
49686;PMS5003;36064;38.180;-122.272;2023-12-22T07:20:00;21.2;20.2;
49686;PMS5003;36064;38.180;-122.272;2023-12-22T07:25:00;25.2;22.6;
49686;PMS5003;36064;38.180;-122.272;2023-12-22T07:30:00;20.0;18.4;
49686;PMS5003;36064;38.180;-122.272;2023-12-22T07:35:00;19.0;16.6;
49686;PMS5003;36064;38.180;-122.272;2023-12-22T07:40:00;19.2;19.2;
49686;PMS5003;36064;38.180;-122.272;2023-12-22T07:45:00;19.2;17.2;
49686;PMS5003;36064;38.180;-122.272;2023-12-22T07:50:00;17.8;15.8;
49686;PMS5003;36064;38.180;-122.272;2023-12-22T07:55:00;16.0;15.4;
49686;PMS5003;36064;38.180;-122.272;2023-12-22T08:00:00;19.8;17.0;
49686;PMS5003;36064;38.180;-122.272;2023-12-22T08:05:00;21.0;19.2;
49686;PMS5003;36064;38.180;-122.272;2023-12-22T08:10:00;22.8;21.2;
49686;PMS5003;36064;38.180;-122.272;2023-12-22T08:15:00;21.4;20.2;
49686;PMS5003;36064;38.180;-122.272;2023-12-22T08:20:00;17.6;17.2;
49686;PMS5003;36064;38.180;-122.272;2023-12-22T08:25:00;18.4;17.0;
49686;PMS5003;36064;38.180;-122.272;2023-12-22T08:30:00;20.4;19.4;
49686;PMS5003;36064;38.180;-122.272;2023-12-22T08:35:00;21.2;20.6;
49686;PMS5003;36064;38.180;-122.272;2023-12-22T08:40:00;26.0;22.6;
49686;PMS5003;36064;38.180;-122.272;2023-12-22T08:45:00;21.8;19.8;
49686;PMS5003;36064;38.180;-122.272;2023-12-22T08:50:01;16.6;15.8;
49686;PMS5003;36064;38.180;-122.272;2023-12-22T08:55:00;20.6;18.0;
49686;PMS5003;36064;38.180;-122.272;2023-12-22T09:00:00;17.6;18.0;
49686;PMS5003;36064;38.180;-122.272;2023-12-22T09:05:00;20.2;17.0;
49686;PMS5003;36064;38.180;-122.272;2023-12-22T09:10:00;25.6;21.2;
49686;PMS5003;36064;38.180;-122.272;2023-12-22T09:15:00;16.4;14.4;
49686;PMS5003;36064;38.180;-122.272;2023-12-22T09:20:00;16.8;16.8;
49686;PMS5003;36064;38.180;-122.272;2023-12-22T09:25:00;15.8;15.8;
49686;PMS5003;36064;38.180;-122.272;2023-12-22T09:30:00;15.2;14.0;
49686;PMS5003;36064;38.180;-122.272;2023-12-22T09:35:00;13.0;12.4;
49686;PMS5003;36064;38.180;-122.272;2023-12-22T09:40:00;12.6;11.6;
49686;PMS5003;36064;38.180;-122.272;2023-12-22T09:45:00;11.2;10.6;
49686;PMS5003;36064;38.180;-122.272;2023-12-22T09:50:00;14.0;12.4;
49686;PMS5003;36064;38.180;-122.272;2023-12-22T09:55:00;10.0;9.0;
49686;PMS5003;36064;38.180;-122.272;2023-12-22T10:00:00;12.8;10.4;
49686;PMS5003;36064;38.180;-122.272;2023-12-22T10:05:00;9.2;9.0;
49686;PMS5003;36064;38.180;-122.272;2023-12-22T10:10:00;9.8;9.4;
49686;PMS5003;36064;38.180;-122.272;2023-12-22T10:15:00;11.2;10.8;
49686;PMS5003;36064;38.180;-122.272;2023-12-22T10:20:00;15.4;15.4;
49686;PMS5003;36064;38.180;-122.272;2023-12-22T10:25:00;16.4;14.8;
49686;PMS5003;36064;38.180;-122.272;2023-12-22T10:30:00;19.0;17.2;
49686;PMS5003;36064;38.180;-122.272;2023-12-22T10:35:00;18.8;17.4;
49686;PMS5003;36064;38.180;-122.272;2023-12-22T10:40:00;16.4;15.2;
49686;PMS5003;36064;38.180;-122.272;2023-12-22T10:45:00;15.0;15.2;
49686;PMS5003;36064;38.180;-122.272;2023-12-22T10:50:01;13.8;13.4;
49686;PMS5003;36064;38.180;-122.272;2023-12-22T10:55:00;14.4;12.8;
49686;PMS5003;36064;38.180;-122.272;2023-12-22T11:00:00;11.2;9.8;
49686;PMS5003;36064;38.180;-122.272;2023-12-22T11:05:01;12.0;11.4;
49686;PMS5003;36064;38.180;-122.272;2023-12-22T11:10:02;14.2;13.4;
49686;PMS5003;36064;38.180;-122.272;2023-12-22T11:15:00;14.8;13.2;
49686;PMS5003;36064;38.180;-122.272;2023-12-22T11:20:00;9.6;12.6;
49686;PMS5003;36064;38.180;-122.272;2023-12-22T11:25:00;9.8;9.4;
49686;PMS5003;36064;38.180;-122.272;2023-12-22T11:30:00;12.6;12.8;
49686;PMS5003;36064;38.180;-122.272;2023-12-22T11:35:00;11.2;10.0;
49686;PMS5003;36064;38.180;-122.272;2023-12-22T11:40:00;13.4;12.6;
49686;PMS5003;36064;38.180;-122.272;2023-12-22T11:45:00;11.2;10.8;
49686;PMS5003;36064;38.180;-122.272;2023-12-22T11:50:00;18.0;17.0;
49686;PMS5003;36064;38.180;-122.272;2023-12-22T11:55:00;27.4;25.6;
49686;PMS5003;36064;38.180;-122.272;2023-12-22T12:00:02;46.8;45.4;
49686;PMS5003;36064;38.180;-122.272;2023-12-22T12:05:00;61.8;46.6;
49686;PMS5003;36064;38.180;-122.272;2023-12-22T12:10:00;26.2;23.2;
49686;PMS5003;36064;38.180;-122.272;2023-12-22T12:15:06;22.2;19.8;
49686;PMS5003;36064;38.180;-122.272;2023-12-22T12:20:00;27.4;25.8;
49686;PMS5003;36064;38.180;-122.272;2023-12-22T12:25:00;23.4;22.4;
49686;PMS5003;36064;38.180;-122.272;2023-12-22T12:30:04;16.2;15.0;
49686;PMS5003;36064;38.180;-122.272;2023-12-22T12:35:00;20.8;19.0;
49686;PMS5003;36064;38.180;-122.272;2023-12-22T12:40:00;29.4;25.0;
49686;PMS5003;36064;38.180;-122.272;2023-12-22T12:45:00;30.0;28.0;
49686;PMS5003;36064;38.180;-122.272;2023-12-22T12:50:00;26.2;22.8;
49686;PMS5003;36064;38.180;-122.272;2023-12-22T12:55:00;21.4;19.2;
49686;PMS5003;36064;38.180;-122.272;2023-12-22T13:00:00;19.8;19.4;
49686;PMS5003;36064;38.180;-122.272;2023-12-22T13:05:00;16.6;15.4;
49686;PMS5003;36064;38.180;-122.272;2023-12-22T13:10:00;24.0;22.0;
49686;PMS5003;36064;38.180;-122.272;2023-12-22T13:15:01;20.4;19.0;
49686;PMS5003;36064;38.180;-122.272;2023-12-22T13:20:00;13.0;12.4;
49686;PMS5003;36064;38.180;-122.272;2023-12-22T13:25:00;12.4;11.4;
49686;PMS5003;36064;38.180;-122.272;2023-12-22T13:30:00;10.8;10.4;
49686;PMS5003;36064;38.180;-122.272;2023-12-22T13:35:00;10.8;10.6;
49686;PMS5003;36064;38.180;-122.272;2023-12-22T13:40:00;15.2;14.6;
49686;PMS5003;36064;38.180;-122.272;2023-12-22T13:45:00;16.6;16.0;
49686;PMS5003;36064;38.180;-122.272;2023-12-22T13:50:00;31.4;26.8;
49686;PMS5003;36064;38.180;-122.272;2023-12-22T13:55:00;33.8;29.2;
49686;PMS5003;36064;38.180;-122.272;2023-12-22T14:00:00;41.4;33.0;
49686;PMS5003;36064;38.180;-122.272;2023-12-22T14:05:00;42.8;35.0;
49686;PMS5003;36064;38.180;-122.272;2023-12-22T14:10:04;45.0;39.0;
49686;PMS5003;36064;38.180;-122.272;2023-12-22T14:15:00;58.6;41.8;
49686;PMS5003;36064;38.180;-122.272;2023-12-22T14:20:00;44.4;33.0;
49686;PMS5003;36064;38.180;-122.272;2023-12-22T14:25:00;34.2;29.4;
49686;PMS5003;36064;38.180;-122.272;2023-12-22T14:30:00;33.0;26.6;
49686;PMS5003;36064;38.180;-122.272;2023-12-22T14:35:00;26.2;22.6;
49686;PMS5003;36064;38.180;-122.272;2023-12-22T14:40:00;25.4;24.2;
49686;PMS5003;36064;38.180;-122.272;2023-12-22T14:45:00;24.6;20.4;
49686;PMS5003;36064;38.180;-122.272;2023-12-22T14:50:01;24.8;22.8;
49686;PMS5003;36064;38.180;-122.272;2023-12-22T14:55:00;22.8;21.2;
49686;PMS5003;36064;38.180;-122.272;2023-12-22T15:00:00;25.4;23.2;
49686;PMS5003;36064;38.180;-122.272;2023-12-22T15:05:01;22.8;19.8;
49686;PMS5003;36064;38.180;-122.272;2023-12-22T15:10:00;21.6;19.6;
49686;PMS5003;36064;38.180;-122.272;2023-12-22T15:15:00;22.6;18.8;
49686;PMS5003;36064;38.180;-122.272;2023-12-22T15:20:00;20.8;19.6;
49686;PMS5003;36064;38.180;-122.272;2023-12-22T15:25:00;22.0;20.2;
49686;PMS5003;36064;38.180;-122.272;2023-12-22T15:30:00;24.4;20.2;
49686;PMS5003;36064;38.180;-122.272;2023-12-22T15:35:00;19.8;16.2;
49686;PMS5003;36064;38.180;-122.272;2023-12-22T15:40:00;19.2;16.6;
49686;PMS5003;36064;38.180;-122.272;2023-12-22T15:45:00;16.8;14.6;
49686;PMS5003;36064;38.180;-122.272;2023-12-22T15:50:00;14.0;13.0;
49686;PMS5003;36064;38.180;-122.272;2023-12-22T15:55:00;14.4;13.2;
49686;PMS5003;36064;38.180;-122.272;2023-12-22T16:00:00;15.6;13.0;
49686;PMS5003;36064;38.180;-122.272;2023-12-22T16:05:00;19.0;16.4;
49686;PMS5003;36064;38.180;-122.272;2023-12-22T16:10:00;22.0;20.0;
49686;PMS5003;36064;38.180;-122.272;2023-12-22T16:15:00;25.0;23.0;
49686;PMS5003;36064;38.180;-122.272;2023-12-22T16:20:00;26.4;24.0;
49686;PMS5003;36064;38.180;-122.272;2023-12-22T16:25:00;22.4;19.6;
49686;PMS5003;36064;38.180;-122.272;2023-12-22T16:30:00;17.8;16.0;
49686;PMS5003;36064;38.180;-122.272;2023-12-22T16:35:00;14.4;14.6;
49686;PMS5003;36064;38.180;-122.272;2023-12-22T16:40:00;11.8;10.2;
49686;PMS5003;36064;38.180;-122.272;2023-12-22T16:45:00;14.8;13.2;
49686;PMS5003;36064;38.180;-122.272;2023-12-22T16:50:00;15.2;14.6;
49686;PMS5003;36064;38.180;-122.272;2023-12-22T16:55:00;15.0;12.2;
49686;PMS5003;36064;38.180;-122.272;2023-12-22T17:00:00;12.4;12.0;
49686;PMS5003;36064;38.180;-122.272;2023-12-22T17:05:00;12.2;11.2;
49686;PMS5003;36064;38.180;-122.272;2023-12-22T17:10:00;14.8;12.4;
49686;PMS5003;36064;38.180;-122.272;2023-12-22T17:15:00;14.6;13.8;
49686;PMS5003;36064;38.180;-122.272;2023-12-22T17:20:00;13.2;11.2;
49686;PMS5003;36064;38.180;-122.272;2023-12-22T17:25:00;16.8;16.4;
49686;PMS5003;36064;38.180;-122.272;2023-12-22T17:30:00;16.2;15.2;
49686;PMS5003;36064;38.180;-122.272;2023-12-22T17:35:00;14.8;13.8;
49686;PMS5003;36064;38.180;-122.272;2023-12-22T17:40:00;14.8;14.4;
49686;PMS5003;36064;38.180;-122.272;2023-12-22T17:45:00;15.2;14.6;
49686;PMS5003;36064;38.180;-122.272;2023-12-22T17:50:00;13.4;12.6;
49686;PMS5003;36064;38.180;-122.272;2023-12-22T17:55:00;11.2;11.2;
49686;PMS5003;36064;38.180;-122.272;2023-12-22T18:00:00;12.4;11.4;
49686;PMS5003;36064;38.180;-122.272;2023-12-22T18:05:00;12.6;10.2;
49686;PMS5003;36064;38.180;-122.272;2023-12-22T18:10:00;8.2;6.0;
49686;PMS5003;36064;38.180;-122.272;2023-12-22T18:15:00;10.8;9.6;
49686;PMS5003;36064;38.180;-122.272;2023-12-22T18:20:00;9.2;8.0;
49686;PMS5003;36064;38.180;-122.272;2023-12-22T18:25:00;7.2;7.2;
49686;PMS5003;36064;38.180;-122.272;2023-12-22T18:30:01;4.2;3.6;
49686;PMS5003;36064;38.180;-122.272;2023-12-22T18:35:00;6.0;6.0;
49686;PMS5003;36064;38.180;-122.272;2023-12-22T18:40:00;6.2;5.8;
49686;PMS5003;36064;38.180;-122.272;2023-12-22T18:45:00;5.6;5.2;
49686;PMS5003;36064;38.180;-122.272;2023-12-22T18:50:00;3.8;4.2;
49686;PMS5003;36064;38.180;-122.272;2023-12-22T18:55:00;4.4;4.8;
49686;PMS5003;36064;38.180;-122.272;2023-12-22T19:00:00;4.4;5.2;
49686;PMS5003;36064;38.180;-122.272;2023-12-22T19:05:00;4.0;3.6;
49686;PMS5003;36064;38.180;-122.272;2023-12-22T19:10:00;4.8;4.8;
49686;PMS5003;36064;38.180;-122.272;2023-12-22T19:15:00;5.0;4.6;
49686;PMS5003;36064;38.180;-122.272;2023-12-22T19:20:00;4.4;4.4;
49686;PMS5003;36064;38.180;-122.272;2023-12-22T19:25:00;7.4;7.4;
49686;PMS5003;36064;38.180;-122.272;2023-12-22T19:30:00;7.4;7.4;
49686;PMS5003;36064;38.180;-122.272;2023-12-22T19:35:00;3.6;3.6;
49686;PMS5003;36064;38.180;-122.272;2023-12-22T19:40:00;3.6;3.6;
49686;PMS5003;36064;38.180;-122.272;2023-12-22T19:45:00;3.8;3.8;
49686;PMS5003;36064;38.180;-122.272;2023-12-22T19:50:00;3.4;3.4;
49686;PMS5003;36064;38.180;-122.272;2023-12-22T19:55:00;3.2;2.8;
49686;PMS5003;36064;38.180;-122.272;2023-12-22T20:00:00;5.6;4.0;
49686;PMS5003;36064;38.180;-122.272;2023-12-22T20:05:00;4.4;4.0;
49686;PMS5003;36064;38.180;-122.272;2023-12-22T20:10:00;2.8;2.8;
49686;PMS5003;36064;38.180;-122.272;2023-12-22T20:15:00;3.2;2.8;
49686;PMS5003;36064;38.180;-122.272;2023-12-22T20:20:00;4.6;4.2;
49686;PMS5003;36064;38.180;-122.272;2023-12-22T20:25:00;2.8;2.6;
49686;PMS5003;36064;38.180;-122.272;2023-12-22T20:30:00;4.2;2.6;
49686;PMS5003;36064;38.180;-122.272;2023-12-22T20:35:00;5.6;4.0;
49686;PMS5003;36064;38.180;-122.272;2023-12-22T20:40:00;2.2;2.2;
49686;PMS5003;36064;38.180;-122.272;2023-12-22T20:45:00;2.2;2.2;
49686;PMS5003;36064;38.180;-122.272;2023-12-22T20:50:00;3.0;2.2;
49686;PMS5003;36064;38.180;-122.272;2023-12-22T20:55:00;4.6;3.4;
49686;PMS5003;36064;38.180;-122.272;2023-12-22T21:00:00;3.4;3.4;
49686;PMS5003;36064;38.180;-122.272;2023-12-22T21:05:00;3.4;2.2;
49686;PMS5003;36064;38.180;-122.272;2023-12-22T21:10:00;2.8;2.2;
49686;PMS5003;36064;38.180;-122.272;2023-12-22T21:15:00;3.0;2.8;
49686;PMS5003;36064;38.180;-122.272;2023-12-22T21:20:00;3.0;2.8;
49686;PMS5003;36064;38.180;-122.272;2023-12-22T21:25:01;2.4;2.4;
49686;PMS5003;36064;38.180;-122.272;2023-12-22T21:30:00;1.8;1.8;
49686;PMS5003;36064;38.180;-122.272;2023-12-22T21:35:00;2.6;2.6;
49686;PMS5003;36064;38.180;-122.272;2023-12-22T21:40:00;3.0;3.0;
49686;PMS5003;36064;38.180;-122.272;2023-12-22T21:45:00;3.2;2.4;
49686;PMS5003;36064;38.180;-122.272;2023-12-22T21:50:00;2.6;2.2;
49686;PMS5003;36064;38.180;-122.272;2023-12-22T21:55:00;2.6;2.2;
49686;PMS5003;36064;38.180;-122.272;2023-12-22T22:00:00;2.8;2.4;
49686;PMS5003;36064;38.180;-122.272;2023-12-22T22:05:00;2.2;2.0;
49686;PMS5003;36064;38.180;-122.272;2023-12-22T22:10:00;1.4;1.4;
49686;PMS5003;36064;38.180;-122.272;2023-12-22T22:15:00;2.2;2.2;
49686;PMS5003;36064;38.180;-122.272;2023-12-22T22:20:00;2.0;2.0;
49686;PMS5003;36064;38.180;-122.272;2023-12-22T22:25:00;1.6;1.2;
49686;PMS5003;36064;38.180;-122.272;2023-12-22T22:30:00;3.6;3.2;
49686;PMS5003;36064;38.180;-122.272;2023-12-22T22:35:00;3.6;3.2;
49686;PMS5003;36064;38.180;-122.272;2023-12-22T22:40:00;1.6;1.6;
49686;PMS5003;36064;38.180;-122.272;2023-12-22T22:45:00;2.6;1.6;
49686;PMS5003;36064;38.180;-122.272;2023-12-22T22:50:00;3.2;1.8;
49686;PMS5003;36064;38.180;-122.272;2023-12-22T22:55:00;2.0;1.8;
49686;PMS5003;36064;38.180;-122.272;2023-12-22T23:00:00;1.6;1.6;
49686;PMS5003;36064;38.180;-122.272;2023-12-22T23:05:00;1.6;1.6;
49686;PMS5003;36064;38.180;-122.272;2023-12-22T23:10:00;2.0;2.0;
49686;PMS5003;36064;38.180;-122.272;2023-12-22T23:15:00;2.4;2.2;
49686;PMS5003;36064;38.180;-122.272;2023-12-22T23:20:00;4.0;4.0;
49686;PMS5003;36064;38.180;-122.272;2023-12-22T23:25:00;5.4;3.8;
49686;PMS5003;36064;38.180;-122.272;2023-12-22T23:30:00;2.8;2.8;
49686;PMS5003;36064;38.180;-122.272;2023-12-22T23:35:00;3.0;3.0;
49686;PMS5003;36064;38.180;-122.272;2023-12-22T23:40:00;3.0;3.0;
49686;PMS5003;36064;38.180;-122.272;2023-12-22T23:45:00;3.8;3.8;
49686;PMS5003;36064;38.180;-122.272;2023-12-22T23:50:00;3.8;3.8;
49686;PMS5003;36064;38.180;-122.272;2023-12-22T23:55:00;2.6;2.6;
